sensor_id;sensor_type;location;lat;lon;timestamp;pressure;altitude;pressure_sealevel;temperature;humidity
56668;BME280;42542;48.360;10.958;2023-02-12T00:05:39;97988.06;;;2.71;83.94
56668;BME280;42542;48.360;10.958;2023-02-12T00:08:42;97997.34;;;2.80;84.35
56668;BME280;42542;48.360;10.958;2023-02-12T00:11:44;98006.50;;;2.73;84.34
56668;BME280;42542;48.360;10.958;2023-02-12T00:14:49;98000.47;;;2.69;84.83
56668;BME280;42542;48.360;10.958;2023-02-12T00:17:53;98009.75;;;2.78;84.16
56668;BME280;42542;48.360;10.958;2023-02-12T00:20:58;98018.59;;;2.77;84.69
56668;BME280;42542;48.360;10.958;2023-02-12T00:24:07;98016.09;;;2.74;84.89
56668;BME280;42542;48.360;10.958;2023-02-12T00:27:15;98009.75;;;2.78;84.40
56668;BME280;42542;48.360;10.958;2023-02-12T00:30:17;98002.06;;;2.73;84.20
56668;BME280;42542;48.360;10.958;2023-02-12T00:33:19;98003.63;;;2.78;84.78
56668;BME280;42542;48.360;10.958;2023-02-12T00:36:26;98007.06;;;2.80;84.85
56668;BME280;42542;48.360;10.958;2023-02-12T00:39:28;98003.91;;;2.71;84.90
56668;BME280;42542;48.360;10.958;2023-02-12T00:42:30;98014.19;;;2.78;84.99
56668;BME280;42542;48.360;10.958;2023-02-12T00:45:34;98022.91;;;2.80;84.95
56668;BME280;42542;48.360;10.958;2023-02-12T00:48:43;98024.53;;;2.82;85.08
56668;BME280;42542;48.360;10.958;2023-02-12T00:51:45;98011.75;;;2.73;85.35
56668;BME280;42542;48.360;10.958;2023-02-12T00:54:50;98020.25;;;2.80;85.19
56668;BME280;42542;48.360;10.958;2023-02-12T00:57:53;98010.91;;;2.72;85.37
56668;BME280;42542;48.360;10.958;2023-02-12T01:00:58;98001.22;;;2.73;84.85
56668;BME280;42542;48.360;10.958;2023-02-12T01:04:00;97995.13;;;2.71;85.31
56668;BME280;42542;48.360;10.958;2023-02-12T01:07:06;98000.25;;;2.74;85.07
56668;BME280;42542;48.360;10.958;2023-02-12T01:10:57;98002.63;;;2.80;85.57
56668;BME280;42542;48.360;10.958;2023-02-12T01:13:59;97998.34;;;2.78;85.21
56668;BME280;42542;48.360;10.958;2023-02-12T01:17:08;97991.69;;;2.69;85.40
56668;BME280;42542;48.360;10.958;2023-02-12T01:20:20;98007.53;;;2.69;85.92
56668;BME280;42542;48.360;10.958;2023-02-12T01:23:24;97998.00;;;2.66;85.71
56668;BME280;42542;48.360;10.958;2023-02-12T01:26:27;97998.63;;;2.71;85.80
56668;BME280;42542;48.360;10.958;2023-02-12T01:29:36;97999.63;;;2.69;85.65
56668;BME280;42542;48.360;10.958;2023-02-12T01:32:40;98014.19;;;2.78;85.97
56668;BME280;42542;48.360;10.958;2023-02-12T01:35:45;97999.31;;;2.75;85.84
56668;BME280;42542;48.360;10.958;2023-02-12T01:38:49;98001.69;;;2.81;86.40
56668;BME280;42542;48.360;10.958;2023-02-12T01:41:53;98002.47;;;2.83;86.25
56668;BME280;42542;48.360;10.958;2023-02-12T01:45:27;98001.50;;;2.86;86.26
56668;BME280;42542;48.360;10.958;2023-02-12T01:49:13;97990.41;;;2.78;86.45
56668;BME280;42542;48.360;10.958;2023-02-12T01:52:22;97997.94;;;2.87;86.91
56668;BME280;42542;48.360;10.958;2023-02-12T01:55:26;97999.66;;;2.88;86.89
56668;BME280;42542;48.360;10.958;2023-02-12T01:58:36;97985.94;;;2.80;86.38
56668;BME280;42542;48.360;10.958;2023-02-12T02:01:39;97989.50;;;2.79;86.88
56668;BME280;42542;48.360;10.958;2023-02-12T02:04:53;97991.84;;;2.85;87.29
56668;BME280;42542;48.360;10.958;2023-02-12T02:07:57;97996.91;;;2.89;87.93
56668;BME280;42542;48.360;10.958;2023-02-12T02:10:59;97995.41;;;2.84;87.90
56668;BME280;42542;48.360;10.958;2023-02-12T02:14:02;97996.22;;;2.86;88.32
56668;BME280;42542;48.360;10.958;2023-02-12T02:21:35;97995.69;;;2.96;88.49
56668;BME280;42542;48.360;10.958;2023-02-12T02:29:31;97975.78;;;2.89;87.88
56668;BME280;42542;48.360;10.958;2023-02-12T02:32:07;97972.38;;;2.87;87.33
56668;BME280;42542;48.360;10.958;2023-02-12T02:35:23;97980.19;;;2.89;87.75
56668;BME280;42542;48.360;10.958;2023-02-12T02:42:00;97981.41;;;2.82;88.19
56668;BME280;42542;48.360;10.958;2023-02-12T02:45:14;97974.69;;;2.74;87.82
56668;BME280;42542;48.360;10.958;2023-02-12T02:48:26;97972.22;;;2.71;88.35
56668;BME280;42542;48.360;10.958;2023-02-12T02:51:45;97973.94;;;2.72;87.95
56668;BME280;42542;48.360;10.958;2023-02-12T02:55:00;97966.16;;;2.69;88.13
56668;BME280;42542;48.360;10.958;2023-02-12T02:58:19;97981.78;;;2.74;88.29
56668;BME280;42542;48.360;10.958;2023-02-12T03:01:44;97982.97;;;2.67;88.70
56668;BME280;42542;48.360;10.958;2023-02-12T03:04:53;97965.50;;;2.64;88.34
56668;BME280;42542;48.360;10.958;2023-02-12T03:08:19;97979.63;;;2.63;88.78
56668;BME280;42542;48.360;10.958;2023-02-12T03:11:30;97976.13;;;2.63;88.71
56668;BME280;42542;48.360;10.958;2023-02-12T03:14:41;97974.50;;;2.60;89.36
56668;BME280;42542;48.360;10.958;2023-02-12T03:17:47;97988.19;;;2.68;88.79
56668;BME280;42542;48.360;10.958;2023-02-12T03:20:58;97984.91;;;2.63;88.85
56668;BME280;42542;48.360;10.958;2023-02-12T03:24:15;97989.41;;;2.61;89.33
56668;BME280;42542;48.360;10.958;2023-02-12T03:27:36;97996.41;;;2.62;89.88
56668;BME280;42542;48.360;10.958;2023-02-12T03:34:33;98001.97;;;2.56;90.15
56668;BME280;42542;48.360;10.958;2023-02-12T03:38:16;98009.81;;;2.58;90.70
56668;BME280;42542;48.360;10.958;2023-02-12T03:41:42;97997.72;;;2.52;90.07
56668;BME280;42542;48.360;10.958;2023-02-12T03:48:35;98003.75;;;2.56;90.70
56668;BME280;42542;48.360;10.958;2023-02-12T03:51:46;98006.50;;;2.53;90.38
56668;BME280;42542;48.360;10.958;2023-02-12T03:54:51;97997.66;;;2.54;89.98
56668;BME280;42542;48.360;10.958;2023-02-12T03:57:58;98019.31;;;2.62;91.08
56668;BME280;42542;48.360;10.958;2023-02-12T04:01:05;97995.94;;;2.53;91.10
56668;BME280;42542;48.360;10.958;2023-02-12T04:04:11;98005.25;;;2.61;90.42
56668;BME280;42542;48.360;10.958;2023-02-12T04:07:14;97999.44;;;2.53;90.81
56668;BME280;42542;48.360;10.958;2023-02-12T04:10:30;98013.44;;;2.55;91.37
56668;BME280;42542;48.360;10.958;2023-02-12T04:17:20;98016.22;;;2.52;91.62
56668;BME280;42542;48.360;10.958;2023-02-12T04:27:31;98025.19;;;2.48;92.41
56668;BME280;42542;48.360;10.958;2023-02-12T04:30:42;98031.34;;;2.49;92.67
56668;BME280;42542;48.360;10.958;2023-02-12T04:37:46;98047.81;;;2.54;93.76
56668;BME280;42542;48.360;10.958;2023-02-12T04:40:53;98033.19;;;2.47;94.10
56668;BME280;42542;48.360;10.958;2023-02-12T04:43:56;98040.25;;;2.46;95.17
56668;BME280;42542;48.360;10.958;2023-02-12T04:47:08;98037.47;;;2.49;95.50
56668;BME280;42542;48.360;10.958;2023-02-12T04:50:21;98042.81;;;2.48;95.73
56668;BME280;42542;48.360;10.958;2023-02-12T04:53:38;98038.47;;;2.47;95.94
56668;BME280;42542;48.360;10.958;2023-02-12T04:56:51;98014.19;;;2.39;95.75
56668;BME280;42542;48.360;10.958;2023-02-12T04:59:56;98038.63;;;2.44;96.27
56668;BME280;42542;48.360;10.958;2023-02-12T05:03:01;98034.38;;;2.40;96.26
56668;BME280;42542;48.360;10.958;2023-02-12T05:06:08;98039.38;;;2.46;96.73
56668;BME280;42542;48.360;10.958;2023-02-12T05:09:16;98029.25;;;2.37;96.99
56668;BME280;42542;48.360;10.958;2023-02-12T05:12:19;98039.47;;;2.44;97.39
56668;BME280;42542;48.360;10.958;2023-02-12T05:15:26;98031.78;;;2.38;97.19
56668;BME280;42542;48.360;10.958;2023-02-12T05:18:30;98050.78;;;2.46;96.93
56668;BME280;42542;48.360;10.958;2023-02-12T05:21:32;98045.63;;;2.45;97.76
56668;BME280;42542;48.360;10.958;2023-02-12T05:24:36;98045.63;;;2.45;97.60
56668;BME280;42542;48.360;10.958;2023-02-12T05:27:38;98041.53;;;2.38;97.83
56668;BME280;42542;48.360;10.958;2023-02-12T05:30:41;98052.09;;;2.38;98.37
56668;BME280;42542;48.360;10.958;2023-02-12T05:33:44;98048.59;;;2.37;98.52
56668;BME280;42542;48.360;10.958;2023-02-12T05:36:47;98058.28;;;2.37;98.63
56668;BME280;42542;48.360;10.958;2023-02-12T05:39:54;98050.69;;;2.29;99.42
56668;BME280;42542;48.360;10.958;2023-02-12T05:43:53;98060.81;;;2.38;99.09
56668;BME280;42542;48.360;10.958;2023-02-12T05:47:00;98061.84;;;2.35;99.16
56668;BME280;42542;48.360;10.958;2023-02-12T05:50:06;98054.91;;;2.33;99.45
56668;BME280;42542;48.360;10.958;2023-02-12T05:53:08;98053.19;;;2.32;99.59
56668;BME280;42542;48.360;10.958;2023-02-12T05:56:19;98055.56;;;2.38;99.75
56668;BME280;42542;48.360;10.958;2023-02-12T05:59:22;98059.03;;;2.39;99.97
56668;BME280;42542;48.360;10.958;2023-02-12T06:02:25;98045.34;;;2.30;99.83
56668;BME280;42542;48.360;10.958;2023-02-12T06:05:29;98066.03;;;2.40;99.33
56668;BME280;42542;48.360;10.958;2023-02-12T06:08:31;98062.53;;;2.39;100.00
56668;BME280;42542;48.360;10.958;2023-02-12T06:11:37;98062.81;;;2.33;99.94
56668;BME280;42542;48.360;10.958;2023-02-12T06:14:44;98077.47;;;2.40;99.52
56668;BME280;42542;48.360;10.958;2023-02-12T06:17:58;98063.81;;;2.30;99.98
56668;BME280;42542;48.360;10.958;2023-02-12T06:21:04;98081.22;;;2.34;100.00
56668;BME280;42542;48.360;10.958;2023-02-12T06:24:06;98086.25;;;2.41;99.94
56668;BME280;42542;48.360;10.958;2023-02-12T06:27:14;98084.47;;;2.41;100.00
56668;BME280;42542;48.360;10.958;2023-02-12T06:30:19;98096.72;;;2.42;100.00
56668;BME280;42542;48.360;10.958;2023-02-12T06:33:44;98082.03;;;2.37;100.00
56668;BME280;42542;48.360;10.958;2023-02-12T06:36:46;98079.44;;;2.35;100.00
56668;BME280;42542;48.360;10.958;2023-02-12T06:39:54;98094.09;;;2.42;100.00
56668;BME280;42542;48.360;10.958;2023-02-12T06:42:56;98083.75;;;2.38;100.00
56668;BME280;42542;48.360;10.958;2023-02-12T06:46:21;98091.56;;;2.39;100.00
56668;BME280;42542;48.360;10.958;2023-02-12T06:49:25;98078.47;;;2.38;100.00
56668;BME280;42542;48.360;10.958;2023-02-12T06:52:31;98102.66;;;2.47;100.00
56668;BME280;42542;48.360;10.958;2023-02-12T06:55:42;98088.00;;;2.40;100.00
56668;BME280;42542;48.360;10.958;2023-02-12T06:58:55;98091.47;;;2.42;100.00
56668;BME280;42542;48.360;10.958;2023-02-12T07:02:17;98099.44;;;2.41;100.00
56668;BME280;42542;48.360;10.958;2023-02-12T07:05:28;98090.53;;;2.43;100.00
56668;BME280;42542;48.360;10.958;2023-02-12T07:08:32;98102.72;;;2.46;100.00
56668;BME280;42542;48.360;10.958;2023-02-12T07:11:35;98084.34;;;2.44;100.00
56668;BME280;42542;48.360;10.958;2023-02-12T07:14:40;98094.91;;;2.44;100.00
56668;BME280;42542;48.360;10.958;2023-02-12T07:18:08;98091.13;;;2.50;100.00
56668;BME280;42542;48.360;10.958;2023-02-12T07:21:20;98096.00;;;2.59;100.00
56668;BME280;42542;48.360;10.958;2023-02-12T07:24:24;98078.63;;;2.53;100.00
56668;BME280;42542;48.360;10.958;2023-02-12T07:28:26;98084.59;;;2.58;100.00
56668;BME280;42542;48.360;10.958;2023-02-12T07:31:53;98077.59;;;2.57;100.00
56668;BME280;42542;48.360;10.958;2023-02-12T07:34:56;98082.53;;;2.65;100.00
56668;BME280;42542;48.360;10.958;2023-02-12T07:38:28;98069.69;;;2.57;100.00
56668;BME280;42542;48.360;10.958;2023-02-12T07:41:40;98071.19;;;2.63;100.00
56668;BME280;42542;48.360;10.958;2023-02-12T07:44:47;98060.63;;;2.63;100.00
56668;BME280;42542;48.360;10.958;2023-02-12T07:48:04;98066.25;;;2.74;100.00
56668;BME280;42542;48.360;10.958;2023-02-12T07:51:09;98075.63;;;2.81;100.00
56668;BME280;42542;48.360;10.958;2023-02-12T07:56:03;98065.84;;;2.83;100.00
56668;BME280;42542;48.360;10.958;2023-02-12T08:00:36;98055.44;;;2.80;100.00
56668;BME280;42542;48.360;10.958;2023-02-12T08:04:57;98059.59;;;2.86;100.00
56668;BME280;42542;48.360;10.958;2023-02-12T08:08:10;98057.66;;;2.89;100.00
56668;BME280;42542;48.360;10.958;2023-02-12T08:11:16;98052.25;;;2.92;100.00
56668;BME280;42542;48.360;10.958;2023-02-12T08:14:27;98057.31;;;2.97;100.00
56668;BME280;42542;48.360;10.958;2023-02-12T08:17:29;98066.75;;;3.02;100.00
56668;BME280;42542;48.360;10.958;2023-02-12T08:20:35;98057.19;;;3.00;100.00
56668;BME280;42542;48.360;10.958;2023-02-12T08:23:48;98069.69;;;3.15;100.00
56668;BME280;42542;48.360;10.958;2023-02-12T08:27:00;98065.88;;;3.21;100.00
56668;BME280;42542;48.360;10.958;2023-02-12T08:30:03;98068.53;;;3.21;100.00
56668;BME280;42542;48.360;10.958;2023-02-12T08:33:04;98069.25;;;3.24;100.00
56668;BME280;42542;48.360;10.958;2023-02-12T08:36:10;98075.00;;;3.32;100.00
56668;BME280;42542;48.360;10.958;2023-02-12T08:39:12;98074.75;;;3.38;100.00
56668;BME280;42542;48.360;10.958;2023-02-12T08:42:14;98083.38;;;3.42;100.00
56668;BME280;42542;48.360;10.958;2023-02-12T08:45:16;98079.03;;;3.41;100.00
56668;BME280;42542;48.360;10.958;2023-02-12T08:48:17;98077.97;;;3.45;100.00
56668;BME280;42542;48.360;10.958;2023-02-12T08:51:25;98084.66;;;3.52;100.00
56668;BME280;42542;48.360;10.958;2023-02-12T08:54:31;98082.66;;;3.57;100.00
56668;BME280;42542;48.360;10.958;2023-02-12T08:57:37;98085.94;;;3.62;100.00
56668;BME280;42542;48.360;10.958;2023-02-12T09:00:43;98091.78;;;3.69;100.00
56668;BME280;42542;48.360;10.958;2023-02-12T09:03:51;98088.06;;;3.73;100.00
56668;BME280;42542;48.360;10.958;2023-02-12T09:07:00;98085.13;;;3.79;100.00
56668;BME280;42542;48.360;10.958;2023-02-12T09:10:07;98077.81;;;3.84;100.00
56668;BME280;42542;48.360;10.958;2023-02-12T09:13:16;98086.22;;;3.92;100.00
56668;BME280;42542;48.360;10.958;2023-02-12T09:16:20;98080.81;;;3.95;100.00
56668;BME280;42542;48.360;10.958;2023-02-12T09:19:26;98076.81;;;4.04;100.00
56668;BME280;42542;48.360;10.958;2023-02-12T09:22:32;98080.97;;;4.09;100.00
56668;BME280;42542;48.360;10.958;2023-02-12T09:25:44;98084.16;;;4.16;100.00
56668;BME280;42542;48.360;10.958;2023-02-12T09:28:51;98078.56;;;4.22;100.00
56668;BME280;42542;48.360;10.958;2023-02-12T09:32:06;98071.22;;;4.27;100.00
56668;BME280;42542;48.360;10.958;2023-02-12T09:35:12;98083.88;;;4.39;100.00
56668;BME280;42542;48.360;10.958;2023-02-12T09:38:14;98090.56;;;4.46;100.00
56668;BME280;42542;48.360;10.958;2023-02-12T09:44:56;98089.66;;;4.63;100.00
56668;BME280;42542;48.360;10.958;2023-02-12T09:51:27;98091.69;;;4.75;100.00
56668;BME280;42542;48.360;10.958;2023-02-12T09:54:36;98086.06;;;4.81;100.00
56668;BME280;42542;48.360;10.958;2023-02-12T09:57:44;98089.31;;;4.86;100.00
56668;BME280;42542;48.360;10.958;2023-02-12T10:00:48;98090.03;;;4.90;100.00
56668;BME280;42542;48.360;10.958;2023-02-12T10:03:55;98085.25;;;4.96;100.00
56668;BME280;42542;48.360;10.958;2023-02-12T10:07:35;98085.69;;;5.04;100.00
56668;BME280;42542;48.360;10.958;2023-02-12T10:25:25;98091.03;;;5.36;100.00
56668;BME280;42542;48.360;10.958;2023-02-12T10:28:38;98091.75;;;5.39;100.00
56668;BME280;42542;48.360;10.958;2023-02-12T10:31:43;98088.81;;;5.44;100.00
56668;BME280;42542;48.360;10.958;2023-02-12T10:34:47;98088.66;;;5.47;100.00
56668;BME280;42542;48.360;10.958;2023-02-12T10:38:05;98098.84;;;5.55;100.00
56668;BME280;42542;48.360;10.958;2023-02-12T10:41:12;98093.09;;;5.62;99.75
56668;BME280;42542;48.360;10.958;2023-02-12T10:44:15;98089.34;;;5.66;99.26
56668;BME280;42542;48.360;10.958;2023-02-12T10:47:23;98085.84;;;5.66;98.93
56668;BME280;42542;48.360;10.958;2023-02-12T10:50:42;98091.56;;;5.74;99.15
56668;BME280;42542;48.360;10.958;2023-02-12T10:53:45;98091.31;;;5.78;98.48
56668;BME280;42542;48.360;10.958;2023-02-12T10:56:46;98087.63;;;5.81;97.84
56668;BME280;42542;48.360;10.958;2023-02-12T10:59:51;98087.56;;;5.82;97.66
56668;BME280;42542;48.360;10.958;2023-02-12T11:06:17;98083.25;;;5.80;96.33
56668;BME280;42542;48.360;10.958;2023-02-12T11:09:34;98079.66;;;5.81;96.91
56668;BME280;42542;48.360;10.958;2023-02-12T11:12:41;98077.00;;;5.81;96.58
56668;BME280;42542;48.360;10.958;2023-02-12T11:15:48;98081.38;;;5.82;95.78
56668;BME280;42542;48.360;10.958;2023-02-12T11:18:57;98073.50;;;5.80;96.18
56668;BME280;42542;48.360;10.958;2023-02-12T11:22:06;98074.28;;;5.82;96.03
56668;BME280;42542;48.360;10.958;2023-02-12T11:25:14;98081.19;;;5.85;95.53
56668;BME280;42542;48.360;10.958;2023-02-12T11:28:18;98081.09;;;5.86;95.60
56668;BME280;42542;48.360;10.958;2023-02-12T11:34:24;98069.31;;;5.92;95.88
56668;BME280;42542;48.360;10.958;2023-02-12T11:37:27;98064.88;;;5.93;95.52
56668;BME280;42542;48.360;10.958;2023-02-12T11:40:32;98070.50;;;6.02;95.38
56668;BME280;42542;48.360;10.958;2023-02-12T11:43:35;98066.84;;;6.05;94.48
56668;BME280;42542;48.360;10.958;2023-02-12T11:46:49;98063.91;;;6.09;94.34
56668;BME280;42542;48.360;10.958;2023-02-12T11:49:58;98054.63;;;6.16;94.09
56668;BME280;42542;48.360;10.958;2023-02-12T11:53:07;98053.78;;;6.16;93.85
56668;BME280;42542;48.360;10.958;2023-02-12T11:56:12;98054.84;;;6.27;93.47
56668;BME280;42542;48.360;10.958;2023-02-12T11:59:32;98051.72;;;6.35;93.50
56668;BME280;42542;48.360;10.958;2023-02-12T12:02:36;98054.88;;;6.42;93.34
56668;BME280;42542;48.360;10.958;2023-02-12T12:05:47;98047.22;;;6.51;92.86
56668;BME280;42542;48.360;10.958;2023-02-12T12:12:15;98039.09;;;6.69;91.77
56668;BME280;42542;48.360;10.958;2023-02-12T12:15:44;98035.38;;;6.71;90.39
56668;BME280;42542;48.360;10.958;2023-02-12T12:19:17;98040.44;;;6.76;91.33
56668;BME280;42542;48.360;10.958;2023-02-12T12:22:48;98032.00;;;6.83;91.26
56668;BME280;42542;48.360;10.958;2023-02-12T12:26:01;98030.84;;;6.87;91.48
56668;BME280;42542;48.360;10.958;2023-02-12T12:29:28;98034.72;;;6.96;91.05
56668;BME280;42542;48.360;10.958;2023-02-12T12:32:37;98019.72;;;6.95;91.09
56668;BME280;42542;48.360;10.958;2023-02-12T12:35:51;98037.88;;;7.02;91.49
56668;BME280;42542;48.360;10.958;2023-02-12T12:45:57;98033.56;;;7.00;91.27
56668;BME280;42542;48.360;10.958;2023-02-12T13:12:58;97995.41;;;7.01;90.69
56668;BME280;42542;48.360;10.958;2023-02-12T13:16:28;97995.16;;;7.05;91.42
56668;BME280;42542;48.360;10.958;2023-02-12T13:19:41;98009.94;;;7.10;90.63
56668;BME280;42542;48.360;10.958;2023-02-12T13:29:36;98001.50;;;7.03;89.99
56668;BME280;42542;48.360;10.958;2023-02-12T13:32:47;97991.81;;;7.02;89.12
56668;BME280;42542;48.360;10.958;2023-02-12T13:35:59;98004.81;;;7.06;89.96
56668;BME280;42542;48.360;10.958;2023-02-12T13:55:37;98001.47;;;7.17;88.76
56668;BME280;42542;48.360;10.958;2023-02-12T13:58:50;98004.53;;;7.11;88.38
56668;BME280;42542;48.360;10.958;2023-02-12T14:01:52;97996.81;;;7.06;89.25
56668;BME280;42542;48.360;10.958;2023-02-12T14:04:56;97998.53;;;7.07;88.91
56668;BME280;42542;48.360;10.958;2023-02-12T14:08:03;97994.16;;;7.06;88.85
56668;BME280;42542;48.360;10.958;2023-02-12T14:11:08;97999.47;;;7.06;88.85
56668;BME280;42542;48.360;10.958;2023-02-12T14:14:11;98002.81;;;7.10;89.08
56668;BME280;42542;48.360;10.958;2023-02-12T14:20:31;98006.91;;;7.01;88.24
56668;BME280;42542;48.360;10.958;2023-02-12T14:23:34;98001.88;;;6.97;88.14
56668;BME280;42542;48.360;10.958;2023-02-12T14:26:37;97994.94;;;6.94;88.21
56668;BME280;42542;48.360;10.958;2023-02-12T14:29:39;98001.69;;;7.00;87.85
56668;BME280;42542;48.360;10.958;2023-02-12T14:39:35;97985.00;;;6.98;87.99
56668;BME280;42542;48.360;10.958;2023-02-12T14:45:40;97992.19;;;6.96;87.57
56668;BME280;42542;48.360;10.958;2023-02-12T14:48:53;97990.56;;;6.93;88.16
56668;BME280;42542;48.360;10.958;2023-02-12T14:51:59;97994.47;;;6.88;88.36
56668;BME280;42542;48.360;10.958;2023-02-12T14:55:04;97983.84;;;6.88;88.28
56668;BME280;42542;48.360;10.958;2023-02-12T14:58:19;97982.34;;;6.84;88.00
56668;BME280;42542;48.360;10.958;2023-02-12T15:01:33;97977.88;;;6.84;88.37
56668;BME280;42542;48.360;10.958;2023-02-12T15:04:37;97979.69;;;6.84;87.82
56668;BME280;42542;48.360;10.958;2023-02-12T15:07:47;97985.84;;;6.84;87.78
56668;BME280;42542;48.360;10.958;2023-02-12T15:10:56;97977.19;;;6.81;87.99
56668;BME280;42542;48.360;10.958;2023-02-12T15:14:11;97975.59;;;6.78;88.00
56668;BME280;42542;48.360;10.958;2023-02-12T15:17:18;97982.91;;;6.75;88.46
56668;BME280;42542;48.360;10.958;2023-02-12T15:20:29;97971.72;;;6.70;88.83
56668;BME280;42542;48.360;10.958;2023-02-12T15:23:43;97960.50;;;6.64;88.89
56668;BME280;42542;48.360;10.958;2023-02-12T15:26:48;97963.16;;;6.64;88.53
56668;BME280;42542;48.360;10.958;2023-02-12T15:29:52;97958.06;;;6.61;88.93
56668;BME280;42542;48.360;10.958;2023-02-12T15:32:55;97955.56;;;6.58;88.90
56668;BME280;42542;48.360;10.958;2023-02-12T15:36:00;97951.50;;;6.53;88.93
56668;BME280;42542;48.360;10.958;2023-02-12T15:39:13;97950.94;;;6.48;89.10
56668;BME280;42542;48.360;10.958;2023-02-12T15:42:35;97947.69;;;6.43;89.65
56668;BME280;42542;48.360;10.958;2023-02-12T15:45:51;97952.44;;;6.38;89.54
56668;BME280;42542;48.360;10.958;2023-02-12T15:48:52;97954.31;;;6.36;89.61
56668;BME280;42542;48.360;10.958;2023-02-12T15:52:00;97955.47;;;6.32;89.70
56668;BME280;42542;48.360;10.958;2023-02-12T15:55:36;97954.91;;;6.26;89.78
56668;BME280;42542;48.360;10.958;2023-02-12T15:58:56;97955.38;;;6.19;89.74
56668;BME280;42542;48.360;10.958;2023-02-12T16:02:01;97953.06;;;6.13;89.68
56668;BME280;42542;48.360;10.958;2023-02-12T16:05:23;97950.03;;;6.05;89.85
56668;BME280;42542;48.360;10.958;2023-02-12T16:08:33;97946.03;;;5.98;90.23
56668;BME280;42542;48.360;10.958;2023-02-12T16:11:37;97948.94;;;5.93;90.20
56668;BME280;42542;48.360;10.958;2023-02-12T16:14:46;97941.41;;;5.85;90.45
56668;BME280;42542;48.360;10.958;2023-02-12T16:17:54;97956.84;;;5.79;90.60
56668;BME280;42542;48.360;10.958;2023-02-12T16:21:16;97954.47;;;5.74;90.75
56668;BME280;42542;48.360;10.958;2023-02-12T16:24:21;97952.41;;;5.64;90.60
56668;BME280;42542;48.360;10.958;2023-02-12T16:27:33;97960.72;;;5.58;91.06
56668;BME280;42542;48.360;10.958;2023-02-12T16:30:40;97962.81;;;5.53;91.50
56668;BME280;42542;48.360;10.958;2023-02-12T16:33:55;97967.63;;;5.46;91.19
56668;BME280;42542;48.360;10.958;2023-02-12T16:37:00;97958.28;;;5.39;91.20
56668;BME280;42542;48.360;10.958;2023-02-12T16:43:25;97967.13;;;5.24;91.32
56668;BME280;42542;48.360;10.958;2023-02-12T16:46:43;97968.47;;;5.15;91.15
56668;BME280;42542;48.360;10.958;2023-02-12T16:49:59;97978.56;;;5.08;90.88
56668;BME280;42542;48.360;10.958;2023-02-12T16:53:05;97973.09;;;4.96;90.79
56668;BME280;42542;48.360;10.958;2023-02-12T16:56:16;97982.56;;;4.84;90.49
56668;BME280;42542;48.360;10.958;2023-02-12T16:59:20;97980.44;;;4.75;90.98
56668;BME280;42542;48.360;10.958;2023-02-12T17:02:22;97984.44;;;4.66;90.96
56668;BME280;42542;48.360;10.958;2023-02-12T17:05:26;97984.06;;;4.57;91.42
56668;BME280;42542;48.360;10.958;2023-02-12T17:08:30;97986.25;;;4.49;91.24
56668;BME280;42542;48.360;10.958;2023-02-12T17:11:34;97987.59;;;4.40;91.12
56668;BME280;42542;48.360;10.958;2023-02-12T17:14:40;97977.56;;;4.29;91.35
56668;BME280;42542;48.360;10.958;2023-02-12T17:17:41;97981.47;;;4.22;91.45
56668;BME280;42542;48.360;10.958;2023-02-12T17:20:48;97989.03;;;4.13;91.23
56668;BME280;42542;48.360;10.958;2023-02-12T17:23:53;97986.78;;;4.05;92.16
56668;BME280;42542;48.360;10.958;2023-02-12T17:27:08;97985.44;;;3.97;92.01
56668;BME280;42542;48.360;10.958;2023-02-12T17:30:22;97990.31;;;3.88;92.24
56668;BME280;42542;48.360;10.958;2023-02-12T17:33:29;97979.31;;;3.79;92.78
56668;BME280;42542;48.360;10.958;2023-02-12T17:36:33;97997.13;;;3.75;92.31
56668;BME280;42542;48.360;10.958;2023-02-12T17:39:35;97997.50;;;3.68;91.88
56668;BME280;42542;48.360;10.958;2023-02-12T17:42:37;98006.59;;;3.62;92.28
56668;BME280;42542;48.360;10.958;2023-02-12T17:45:41;98013.97;;;3.56;92.95
56668;BME280;42542;48.360;10.958;2023-02-12T17:48:50;98016.91;;;3.49;92.95
56668;BME280;42542;48.360;10.958;2023-02-12T17:51:56;98010.22;;;3.42;93.23
56668;BME280;42542;48.360;10.958;2023-02-12T17:55:02;98014.94;;;3.36;92.56
56668;BME280;42542;48.360;10.958;2023-02-12T17:58:17;98010.97;;;3.27;92.91
56668;BME280;42542;48.360;10.958;2023-02-12T18:01:22;98016.59;;;3.20;92.82
56668;BME280;42542;48.360;10.958;2023-02-12T18:04:29;98001.19;;;3.10;93.68
56668;BME280;42542;48.360;10.958;2023-02-12T18:07:33;98007.47;;;3.08;93.58
56668;BME280;42542;48.360;10.958;2023-02-12T18:10:40;98007.84;;;3.00;93.63
56668;BME280;42542;48.360;10.958;2023-02-12T18:13:44;98002.06;;;2.92;94.48
56668;BME280;42542;48.360;10.958;2023-02-12T18:16:48;98001.31;;;2.89;94.49
56668;BME280;42542;48.360;10.958;2023-02-12T18:19:53;98004.19;;;2.84;95.00
56668;BME280;42542;48.360;10.958;2023-02-12T18:23:01;98007.06;;;2.80;95.00
56668;BME280;42542;48.360;10.958;2023-02-12T18:26:10;98002.88;;;2.74;94.73
56668;BME280;42542;48.360;10.958;2023-02-12T18:29:15;98005.81;;;2.68;94.43
56668;BME280;42542;48.360;10.958;2023-02-12T18:32:18;98001.69;;;2.62;95.26
56668;BME280;42542;48.360;10.958;2023-02-12T18:35:24;97999.38;;;2.55;95.08
56668;BME280;42542;48.360;10.958;2023-02-12T18:38:27;97999.59;;;2.50;94.68
56668;BME280;42542;48.360;10.958;2023-02-12T18:41:30;98002.38;;;2.47;95.38
56668;BME280;42542;48.360;10.958;2023-02-12T18:44:34;97996.38;;;2.44;95.05
56668;BME280;42542;48.360;10.958;2023-02-12T18:47:36;97995.72;;;2.39;95.41
56668;BME280;42542;48.360;10.958;2023-02-12T18:50:44;97992.38;;;2.35;95.98
56668;BME280;42542;48.360;10.958;2023-02-12T18:54:00;97994.38;;;2.30;96.57
56668;BME280;42542;48.360;10.958;2023-02-12T18:57:06;97985.72;;;2.26;96.05
56668;BME280;42542;48.360;10.958;2023-02-12T19:00:08;97982.44;;;2.21;96.59
56668;BME280;42542;48.360;10.958;2023-02-12T19:03:11;97980.84;;;2.17;96.33